createdAt,value
2023-04-02T00:01:09.394Z,7.65
2023-04-02T00:05:09.452Z,7.65
2023-04-02T00:09:09.181Z,7.65
2023-04-02T00:13:09.491Z,7.65
2023-04-02T00:17:10.189Z,7.65
2023-04-02T00:21:09.825Z,7.65
2023-04-02T00:25:08.889Z,7.65
2023-04-02T00:29:09.032Z,7.65
2023-04-02T00:33:09.608Z,7.65
2023-04-02T00:37:09.650Z,7.65
2023-04-02T00:41:09.603Z,7.65
2023-04-02T00:45:08.702Z,7.65
2023-04-02T00:49:09.045Z,7.65
2023-04-02T00:53:09.107Z,7.65
2023-04-02T00:57:09.311Z,7.65
2023-04-02T01:01:12.534Z,7.65
2023-04-02T01:05:09.726Z,7.65
2023-04-02T01:09:09.485Z,7.65
2023-04-02T01:13:09.636Z,7.65
2023-04-02T01:17:09.885Z,7.65
2023-04-02T01:21:08.765Z,7.65
2023-04-02T01:25:08.858Z,7.65
2023-04-02T01:29:08.871Z,7.65
2023-04-02T01:33:09.146Z,7.65
2023-04-02T01:37:09.028Z,7.65
2023-04-02T01:41:08.912Z,7.65
2023-04-02T01:45:09.006Z,7.65
2023-04-02T01:49:09.029Z,7.65
2023-04-02T01:53:09.277Z,7.65
2023-04-02T01:57:09.790Z,7.65
2023-04-02T02:01:12.823Z,7.65
2023-04-02T02:05:09.611Z,7.65
2023-04-02T02:09:09.788Z,7.65
2023-04-02T02:13:08.913Z,7.65
2023-04-02T02:17:09.333Z,7.65
2023-04-02T02:21:09.184Z,7.65
2023-04-02T02:25:09.408Z,7.65
2023-04-02T02:29:09.741Z,7.65
2023-04-02T02:33:09.921Z,7.65
2023-04-02T02:37:09.139Z,7.65
2023-04-02T02:41:09.083Z,7.65
2023-04-02T02:45:09.267Z,7.65
2023-04-02T02:49:09.596Z,7.65
2023-04-02T02:53:09.434Z,7.65
2023-04-02T02:57:09.971Z,7.65
2023-04-02T03:01:12.165Z,7.65
2023-04-02T03:05:10.003Z,7.65
2023-04-02T03:09:09.740Z,7.65
2023-04-02T03:13:09.046Z,7.65
2023-04-02T03:17:09.322Z,7.65
2023-04-02T03:21:09.387Z,7.65
2023-04-02T03:25:09.796Z,7.65
2023-04-02T03:29:08.919Z,7.65
2023-04-02T03:33:09.420Z,7.65
2023-04-02T03:37:09.269Z,7.65
2023-04-02T03:41:09.287Z,7.65
2023-04-02T03:45:09.337Z,7.65
2023-04-02T03:49:09.757Z,7.65
2023-04-02T03:53:09.760Z,7.65
2023-04-02T03:57:09.151Z,7.65
2023-04-02T04:01:12.806Z,7.65
2023-04-02T04:05:09.171Z,7.65
2023-04-02T04:09:09.209Z,7.65
2023-04-02T04:13:09.336Z,7.65
2023-04-02T04:17:09.952Z,7.65
2023-04-02T04:21:09.701Z,7.65
2023-04-02T04:25:08.861Z,7.65
2023-04-02T04:29:09.480Z,7.65
2023-04-02T04:33:10.268Z,7.65
2023-04-02T04:37:09.688Z,7.65
2023-04-02T04:41:09.758Z,7.65
2023-04-02T04:45:08.993Z,7.65
2023-04-02T04:49:10.313Z,7.65
2023-04-02T04:53:09.156Z,7.65
2023-04-02T04:57:27.030Z,7.65
2023-04-02T05:01:15.802Z,7.65
2023-04-02T05:05:10.017Z,7.65
2023-04-02T05:09:09.408Z,7.65
2023-04-02T05:13:09.751Z,7.65
2023-04-02T05:17:09.453Z,7.65
2023-04-02T05:21:09.168Z,7.65
2023-04-02T05:25:09.290Z,7.65
2023-04-02T05:29:09.335Z,7.65
2023-04-02T05:33:09.626Z,7.65
2023-04-02T05:37:09.876Z,7.65
2023-04-02T05:41:09.896Z,7.65
2023-04-02T05:45:13.058Z,7.65
2023-04-02T05:49:09.083Z,7.65
2023-04-02T05:53:09.006Z,7.65
2023-04-02T05:57:09.208Z,7.65
2023-04-02T06:01:12.002Z,7.65
2023-04-02T06:05:09.492Z,7.65
2023-04-02T06:09:09.662Z,7.65
2023-04-02T06:13:08.684Z,7.65
2023-04-02T06:17:09.471Z,7.65
2023-04-02T06:21:09.256Z,7.65
2023-04-02T06:25:09.429Z,7.65
2023-04-02T06:29:09.372Z,7.65
2023-04-02T06:33:10.014Z,7.65
2023-04-02T06:37:09.931Z,7.65
2023-04-02T06:41:10.440Z,7.65
2023-04-02T06:45:09.032Z,7.65
2023-04-02T06:49:09.354Z,7.65
2023-04-02T06:53:09.506Z,7.65
2023-04-02T06:57:09.916Z,7.65
2023-04-02T07:01:12.077Z,7.65
2023-04-02T07:05:09.550Z,7.65
2023-04-02T07:09:09.342Z,7.65
2023-04-02T07:13:09.657Z,7.65
2023-04-02T07:17:09.872Z,7.65
2023-04-02T07:21:09.096Z,7.65
2023-04-02T07:25:09.536Z,7.65
2023-04-02T07:29:09.390Z,7.65
2023-04-02T07:33:09.715Z,7.65
2023-04-02T07:37:09.806Z,7.65
2023-04-02T07:41:09.663Z,30.77
2023-04-02T07:45:08.761Z,0.07
2023-04-02T07:49:09.040Z,6.18
2023-04-02T07:53:08.985Z,2.64
2023-04-02T07:57:09.329Z,0.02
2023-04-02T08:01:12.206Z,0.02
2023-04-02T08:05:09.250Z,1.13
2023-04-02T08:09:09.065Z,1.13
2023-04-02T08:13:09.168Z,1.13
2023-04-02T08:17:09.077Z,1.13
2023-04-02T08:21:09.065Z,1.13
2023-04-02T08:25:08.847Z,1.13
2023-04-02T08:29:08.994Z,1.13
2023-04-02T08:33:09.439Z,1.13
2023-04-02T08:37:09.388Z,1.13
2023-04-02T08:41:09.281Z,1.13
2023-04-02T08:45:21.259Z,1.13
2023-04-02T08:49:09.585Z,1.13
2023-04-02T08:53:09.585Z,1.13
2023-04-02T08:57:09.978Z,1.13
2023-04-02T09:01:12.814Z,1.13
2023-04-02T09:05:09.728Z,1.13
2023-04-02T09:09:09.621Z,1.13
2023-04-02T09:13:09.643Z,0.08
2023-04-02T09:17:09.101Z,2.21
2023-04-02T09:21:09.165Z,2.21
2023-04-02T09:25:11.603Z,0.01
2023-04-02T09:29:09.224Z,0.01
2023-04-02T09:33:09.969Z,0.01
2023-04-02T09:37:12.299Z,0.01
2023-04-02T09:41:08.771Z,0.01
2023-04-02T09:45:09.078Z,0.01
2023-04-02T09:49:09.404Z,0.01
2023-04-02T09:53:09.123Z,0.01
2023-04-02T09:57:09.617Z,0.01
2023-04-02T10:01:27.940Z,0.5
2023-04-02T10:05:11.537Z,0
2023-04-02T10:09:09.102Z,0
2023-04-02T10:13:09.004Z,0
2023-04-02T10:17:12.484Z,0.47
2023-04-02T10:21:22.671Z,0.47
2023-04-02T10:25:08.770Z,0
2023-04-02T10:29:08.654Z,0
2023-04-02T10:33:09.279Z,0
2023-04-02T10:37:08.872Z,0
2023-04-02T10:41:09.206Z,0
2023-04-02T10:45:24.614Z,0
2023-04-02T10:49:09.353Z,0
2023-04-02T10:53:09.656Z,0
2023-04-02T10:57:24.435Z,0
2023-04-02T11:01:14.141Z,0
2023-04-02T11:05:13.440Z,0.41
2023-04-02T11:09:09.165Z,0.41
2023-04-02T11:13:15.634Z,0
2023-04-02T11:17:15.625Z,0.41
2023-04-02T11:21:09.649Z,0.41
2023-04-02T11:25:09.580Z,0
2023-04-02T11:29:10.168Z,0
2023-04-02T11:33:09.594Z,0
2023-04-02T11:37:09.645Z,0
2023-04-02T11:41:09.646Z,0
2023-04-02T11:45:09.637Z,0
2023-04-02T11:49:10.770Z,0
2023-04-02T11:53:19.703Z,0
2023-04-02T11:57:09.209Z,0
2023-04-02T12:01:10.109Z,0
2023-04-02T12:05:09.106Z,0
2023-04-02T12:09:24.547Z,0
2023-04-02T12:13:09.227Z,0.39
2023-04-02T12:17:10.150Z,0
2023-04-02T12:21:13.152Z,0
2023-04-02T12:25:09.646Z,0.38
2023-04-02T12:29:09.739Z,0
2023-04-02T12:33:09.760Z,0
2023-04-02T12:37:09.816Z,0
2023-04-02T12:41:09.285Z,0
2023-04-02T12:45:08.943Z,0
2023-04-02T12:49:09.154Z,0
2023-04-02T12:53:09.128Z,0
2023-04-02T12:57:09.754Z,0
2023-04-02T13:01:14.394Z,0.38
2023-04-02T13:05:09.334Z,0
2023-04-02T13:09:09.406Z,0
2023-04-02T13:13:09.413Z,0.38
2023-04-02T13:17:09.527Z,0.39
2023-04-02T13:21:09.672Z,0.39
2023-04-02T13:25:09.300Z,0
2023-04-02T13:29:09.345Z,0
2023-04-02T13:33:10.275Z,0
2023-04-02T13:37:08.942Z,0
2023-04-02T13:41:11.156Z,0
2023-04-02T13:45:09.297Z,0
2023-04-02T13:49:09.423Z,0.41
2023-04-02T13:53:10.625Z,0
2023-04-02T13:57:09.139Z,0
2023-04-02T14:01:12.690Z,0
2023-04-02T14:05:13.147Z,0
2023-04-02T14:09:09.065Z,0
2023-04-02T14:13:09.108Z,0
2023-04-02T14:17:09.889Z,0
2023-04-02T14:21:11.220Z,0
2023-04-02T14:25:08.961Z,0
2023-04-02T14:29:09.098Z,0
2023-04-02T14:33:09.491Z,0
2023-04-02T14:37:10.839Z,0
2023-04-02T14:41:09.912Z,0
2023-04-02T14:45:08.811Z,0
2023-04-02T14:49:08.866Z,0.43
2023-04-02T14:53:12.020Z,0
2023-04-02T14:57:09.164Z,0
2023-04-02T15:01:12.465Z,0
2023-04-02T15:05:12.389Z,0
2023-04-02T15:09:21.312Z,0
2023-04-02T15:13:09.624Z,0
2023-04-02T15:17:09.794Z,0
2023-04-02T15:21:09.985Z,0
2023-04-02T15:25:08.882Z,0.43
2023-04-02T15:29:15.877Z,0
2023-04-02T15:33:08.965Z,0
2023-04-02T15:37:09.184Z,0
2023-04-02T15:41:09.017Z,0
2023-04-02T15:45:09.326Z,0
2023-04-02T15:49:09.330Z,0.44
2023-04-02T15:53:09.577Z,0
2023-04-02T15:57:12.114Z,0
2023-04-02T16:01:12.665Z,0.44
2023-04-02T16:05:09.633Z,0
2023-04-02T16:09:09.353Z,0
2023-04-02T16:13:09.382Z,0
2023-04-02T16:17:21.459Z,0
2023-04-02T16:21:10.316Z,0
2023-04-02T16:25:09.295Z,0
2023-04-02T16:29:09.132Z,0
2023-04-02T16:33:09.434Z,0
2023-04-02T16:37:09.535Z,0.44
2023-04-02T16:41:27.566Z,0
2023-04-02T16:45:09.371Z,0
2023-04-02T16:49:09.208Z,0.44
2023-04-02T16:53:09.694Z,0
2023-04-02T16:57:09.798Z,0
2023-04-02T17:01:14.181Z,0.43
2023-04-02T17:05:09.213Z,0.43
2023-04-02T17:09:09.186Z,0.43
2023-04-02T17:13:09.533Z,0
2023-04-02T17:17:09.715Z,0
2023-04-02T17:21:09.952Z,0
2023-04-02T17:25:09.245Z,0
2023-04-02T17:29:09.359Z,0
2023-04-02T17:33:09.936Z,0
2023-04-02T17:37:09.608Z,0.38
2023-04-02T17:41:09.949Z,0
2023-04-02T17:45:09.646Z,0
2023-04-02T17:49:09.693Z,0.37
2023-04-02T17:53:08.769Z,0.36
2023-04-02T17:57:11.696Z,0.36
2023-04-02T18:01:15.517Z,0
2023-04-02T18:05:09.360Z,0
2023-04-02T18:09:09.516Z,0
2023-04-02T18:13:09.471Z,0.35
2023-04-02T18:17:09.990Z,0
2023-04-02T18:21:09.201Z,0
2023-04-02T18:25:08.881Z,0
2023-04-02T18:29:09.113Z,0.35
2023-04-02T18:33:09.148Z,0.35
2023-04-02T18:37:09.195Z,0.35
2023-04-02T18:41:09.306Z,0
2023-04-02T18:45:08.916Z,0
2023-04-02T18:49:09.719Z,0
2023-04-02T18:53:09.560Z,0
2023-04-02T18:57:09.434Z,0
2023-04-02T19:01:12.868Z,0.35
2023-04-02T19:05:09.144Z,0
2023-04-02T19:09:10.237Z,0
2023-04-02T19:13:09.029Z,0.35
2023-04-02T19:17:09.198Z,0
2023-04-02T19:21:10.959Z,0
2023-04-02T19:25:09.423Z,0
2023-04-02T19:29:09.581Z,0
2023-04-02T19:33:09.984Z,0
2023-04-02T19:37:09.974Z,0.36
2023-04-02T19:41:08.841Z,0.36
2023-04-02T19:45:09.596Z,0.36
2023-04-02T19:49:09.821Z,0.37
2023-04-02T19:53:09.561Z,0
2023-04-02T19:57:08.911Z,0
2023-04-02T20:01:13.964Z,0
2023-04-02T20:05:09.137Z,0.37
2023-04-02T20:09:09.192Z,0.37
2023-04-02T20:13:09.284Z,0.38
2023-04-02T20:17:09.799Z,0.38
2023-04-02T20:21:09.896Z,0.38
2023-04-02T20:25:08.915Z,0.39
2023-04-02T20:29:09.172Z,0.39
2023-04-02T20:33:12.356Z,0.39
2023-04-02T20:37:09.599Z,0.39
2023-04-02T20:41:09.969Z,0
2023-04-02T20:45:09.784Z,0
2023-04-02T20:49:09.763Z,0
2023-04-02T20:53:08.934Z,0
2023-04-02T20:57:09.379Z,0
2023-04-02T21:01:12.144Z,0
2023-04-02T21:05:09.601Z,0
2023-04-02T21:09:09.661Z,0
2023-04-02T21:13:08.849Z,0
2023-04-02T21:17:09.566Z,0.38
2023-04-02T21:21:09.539Z,0.38
2023-04-02T21:25:08.780Z,0
2023-04-02T21:29:09.154Z,0.39
2023-04-02T21:33:26.110Z,0.39
2023-04-02T21:37:09.024Z,0
2023-04-02T21:41:09.127Z,0
2023-04-02T21:45:09.590Z,0
2023-04-02T21:49:09.793Z,0
2023-04-02T21:53:09.037Z,0.42
2023-04-02T21:57:09.452Z,0.42
2023-04-02T22:01:26.123Z,0.43
2023-04-02T22:05:10.005Z,0
2023-04-02T22:09:08.721Z,0
2023-04-02T22:13:09.031Z,0
2023-04-02T22:17:09.355Z,0
2023-04-02T22:21:09.432Z,0
2023-04-02T22:25:09.402Z,0.44
2023-04-02T22:29:09.321Z,0.44
2023-04-02T22:33:09.863Z,0.44
2023-04-02T22:37:08.970Z,0
2023-04-02T22:41:09.681Z,0
2023-04-02T22:45:09.348Z,0
2023-04-02T22:49:09.883Z,0.45
2023-04-02T22:53:09.882Z,0
2023-04-02T22:57:09.138Z,0
2023-04-02T23:01:12.662Z,0.46
2023-04-02T23:05:09.837Z,0
2023-04-02T23:09:08.889Z,0
2023-04-02T23:13:09.159Z,0
2023-04-02T23:17:09.346Z,0
2023-04-02T23:21:09.824Z,0
2023-04-02T23:25:09.524Z,0
2023-04-02T23:29:09.685Z,0.45
2023-04-02T23:33:09.168Z,0.45
2023-04-02T23:37:09.237Z,0.45
2023-04-02T23:41:09.593Z,0.45
2023-04-02T23:45:08.872Z,0.45
2023-04-02T23:49:08.963Z,0.45
2023-04-02T23:53:09.138Z,0
2023-04-02T23:57:09.366Z,0
